sensor_id;sensor_type;location;lat;lon;timestamp;temperature;humidity
15546;DHT22;7874;48.870;11.074;2023-06-14T07:07:07;21.90;72.30
15546;DHT22;7874;48.870;11.074;2023-06-14T07:09:35;21.80;73.00
15546;DHT22;7874;48.870;11.074;2023-06-14T07:12:01;21.60;74.30
15546;DHT22;7874;48.870;11.074;2023-06-14T07:14:28;21.60;74.40
15546;DHT22;7874;48.870;11.074;2023-06-14T07:16:55;21.30;74.30
15546;DHT22;7874;48.870;11.074;2023-06-14T07:19:22;21.60;74.40
15546;DHT22;7874;48.870;11.074;2023-06-14T07:21:49;22.00;73.90
15546;DHT22;7874;48.870;11.074;2023-06-14T07:24:17;22.00;73.30
15546;DHT22;7874;48.870;11.074;2023-06-14T07:26:46;22.10;72.30
15546;DHT22;7874;48.870;11.074;2023-06-14T07:29:13;22.00;72.40
15546;DHT22;7874;48.870;11.074;2023-06-14T07:31:41;22.50;73.30
15546;DHT22;7874;48.870;11.074;2023-06-14T07:34:08;22.70;72.90
15546;DHT22;7874;48.870;11.074;2023-06-14T07:36:35;22.60;72.00
15546;DHT22;7874;48.870;11.074;2023-06-14T07:39:03;22.60;72.60
15546;DHT22;7874;48.870;11.074;2023-06-14T07:41:33;22.30;72.80
15546;DHT22;7874;48.870;11.074;2023-06-14T07:44:00;22.40;72.70
15546;DHT22;7874;48.870;11.074;2023-06-14T07:46:26;22.70;71.90
15546;DHT22;7874;48.870;11.074;2023-06-14T07:48:53;23.10;70.60
15546;DHT22;7874;48.870;11.074;2023-06-14T07:51:20;23.10;70.30
15546;DHT22;7874;48.870;11.074;2023-06-14T07:53:48;23.20;70.50
15546;DHT22;7874;48.870;11.074;2023-06-14T07:56:15;23.00;70.30
15546;DHT22;7874;48.870;11.074;2023-06-14T07:58:43;23.30;70.30
15546;DHT22;7874;48.870;11.074;2023-06-14T08:01:10;23.50;70.40
15546;DHT22;7874;48.870;11.074;2023-06-14T08:03:37;24.20;69.60
15546;DHT22;7874;48.870;11.074;2023-06-14T08:06:04;24.20;68.70
15546;DHT22;7874;48.870;11.074;2023-06-14T08:08:31;23.70;68.60
15546;DHT22;7874;48.870;11.074;2023-06-14T08:10:58;23.90;68.70
15546;DHT22;7874;48.870;11.074;2023-06-14T08:13:25;23.90;68.50
15546;DHT22;7874;48.870;11.074;2023-06-14T08:15:53;24.10;67.80
15546;DHT22;7874;48.870;11.074;2023-06-14T08:18:20;24.10;69.50
15546;DHT22;7874;48.870;11.074;2023-06-14T08:20:47;24.50;68.50
15546;DHT22;7874;48.870;11.074;2023-06-14T08:23:15;24.50;68.60
15546;DHT22;7874;48.870;11.074;2023-06-14T08:25:44;24.50;67.90
15546;DHT22;7874;48.870;11.074;2023-06-14T08:28:11;24.90;67.30
15546;DHT22;7874;48.870;11.074;2023-06-14T08:30:38;24.70;66.40
15546;DHT22;7874;48.870;11.074;2023-06-14T08:35:16;24.60;67.20
15546;DHT22;7874;48.870;11.074;2023-06-14T08:37:43;24.80;67.50
15546;DHT22;7874;48.870;11.074;2023-06-14T08:40:18;25.10;66.00
15546;DHT22;7874;48.870;11.074;2023-06-14T08:42:48;25.10;65.90
15546;DHT22;7874;48.870;11.074;2023-06-14T08:45:16;25.60;66.70
15546;DHT22;7874;48.870;11.074;2023-06-14T08:47:44;25.20;65.50
15546;DHT22;7874;48.870;11.074;2023-06-14T08:50:11;25.50;65.30
15546;DHT22;7874;48.870;11.074;2023-06-14T08:52:45;25.50;65.00
15546;DHT22;7874;48.870;11.074;2023-06-14T08:55:16;25.70;65.20
15546;DHT22;7874;48.870;11.074;2023-06-14T08:57:46;25.60;65.70
15546;DHT22;7874;48.870;11.074;2023-06-14T09:00:14;25.50;64.90
15546;DHT22;7874;48.870;11.074;2023-06-14T09:02:41;26.00;66.30
15546;DHT22;7874;48.870;11.074;2023-06-14T09:05:09;26.30;65.30
15546;DHT22;7874;48.870;11.074;2023-06-14T09:07:39;26.60;64.00
15546;DHT22;7874;48.870;11.074;2023-06-14T09:10:10;27.00;63.40
15546;DHT22;7874;48.870;11.074;2023-06-14T09:12:37;26.70;63.90
15546;DHT22;7874;48.870;11.074;2023-06-14T09:15:06;26.70;62.90
15546;DHT22;7874;48.870;11.074;2023-06-14T09:17:34;26.60;62.80
15546;DHT22;7874;48.870;11.074;2023-06-14T09:20:01;27.30;62.30
15546;DHT22;7874;48.870;11.074;2023-06-14T09:22:31;27.80;60.50
15546;DHT22;7874;48.870;11.074;2023-06-14T09:24:59;28.80;60.90
15546;DHT22;7874;48.870;11.074;2023-06-14T09:27:27;28.50;59.40
15546;DHT22;7874;48.870;11.074;2023-06-14T09:29:54;28.70;59.10
15546;DHT22;7874;48.870;11.074;2023-06-14T09:32:22;27.50;59.40
15546;DHT22;7874;48.870;11.074;2023-06-14T09:34:49;27.20;61.80
15546;DHT22;7874;48.870;11.074;2023-06-14T09:37:27;26.50;60.30
15546;DHT22;7874;48.870;11.074;2023-06-14T09:39:55;25.40;62.60
15546;DHT22;7874;48.870;11.074;2023-06-14T09:42:22;24.70;64.90
15546;DHT22;7874;48.870;11.074;2023-06-14T09:44:56;26.00;61.90
15546;DHT22;7874;48.870;11.074;2023-06-14T09:47:25;28.50;61.80
15546;DHT22;7874;48.870;11.074;2023-06-14T09:49:52;29.30;59.00
15546;DHT22;7874;48.870;11.074;2023-06-14T09:52:21;28.50;58.50
15546;DHT22;7874;48.870;11.074;2023-06-14T09:54:48;29.10;58.90
15546;DHT22;7874;48.870;11.074;2023-06-14T09:57:17;28.70;57.70
15546;DHT22;7874;48.870;11.074;2023-06-14T09:59:48;29.30;55.70
15546;DHT22;7874;48.870;11.074;2023-06-14T10:02:23;29.90;56.50
15546;DHT22;7874;48.870;11.074;2023-06-14T10:04:56;29.70;55.50
15546;DHT22;7874;48.870;11.074;2023-06-14T10:07:26;30.40;55.10
15546;DHT22;7874;48.870;11.074;2023-06-14T10:09:55;30.00;56.70
15546;DHT22;7874;48.870;11.074;2023-06-14T10:12:23;31.10;55.80
15546;DHT22;7874;48.870;11.074;2023-06-14T10:14:51;31.50;54.80
15546;DHT22;7874;48.870;11.074;2023-06-14T10:17:26;30.70;54.90
15546;DHT22;7874;48.870;11.074;2023-06-14T10:20:06;32.00;54.70
15546;DHT22;7874;48.870;11.074;2023-06-14T10:22:45;30.00;55.70
15546;DHT22;7874;48.870;11.074;2023-06-14T10:25:26;28.10;57.60
15546;DHT22;7874;48.870;11.074;2023-06-14T10:27:53;26.80;58.70
15546;DHT22;7874;48.870;11.074;2023-06-14T10:30:25;26.70;58.70
15546;DHT22;7874;48.870;11.074;2023-06-14T10:33:06;26.50;59.50
15546;DHT22;7874;48.870;11.074;2023-06-14T10:35:33;26.40;59.70
15546;DHT22;7874;48.870;11.074;2023-06-14T10:38:07;25.80;59.90
15546;DHT22;7874;48.870;11.074;2023-06-14T10:40:34;25.70;60.50
15546;DHT22;7874;48.870;11.074;2023-06-14T10:43:21;25.30;61.50
15546;DHT22;7874;48.870;11.074;2023-06-14T10:46:21;24.50;61.80
15546;DHT22;7874;48.870;11.074;2023-06-14T10:48:58;24.20;61.90
15546;DHT22;7874;48.870;11.074;2023-06-14T10:51:29;24.30;63.00
15546;DHT22;7874;48.870;11.074;2023-06-14T10:53:59;23.90;63.20
15546;DHT22;7874;48.870;11.074;2023-06-14T10:56:29;23.80;63.30
15546;DHT22;7874;48.870;11.074;2023-06-14T10:58:57;23.70;64.00
15546;DHT22;7874;48.870;11.074;2023-06-14T11:01:32;23.70;63.20
15546;DHT22;7874;48.870;11.074;2023-06-14T11:04:08;23.90;63.40
15546;DHT22;7874;48.870;11.074;2023-06-14T11:06:45;23.70;63.30
15546;DHT22;7874;48.870;11.074;2023-06-14T11:09:51;23.10;64.10
15546;DHT22;7874;48.870;11.074;2023-06-14T11:12:27;23.50;64.50
15546;DHT22;7874;48.870;11.074;2023-06-14T11:14:54;23.40;63.50
15546;DHT22;7874;48.870;11.074;2023-06-14T11:17:21;23.60;62.50
15546;DHT22;7874;48.870;11.074;2023-06-14T11:19:49;23.60;63.80
15546;DHT22;7874;48.870;11.074;2023-06-14T11:24:09;23.70;62.60
15546;DHT22;7874;48.870;11.074;2023-06-14T11:26:37;24.10;62.10
15546;DHT22;7874;48.870;11.074;2023-06-14T11:29:05;24.30;62.00
15546;DHT22;7874;48.870;11.074;2023-06-14T11:31:31;24.20;63.30
15546;DHT22;7874;48.870;11.074;2023-06-14T11:33:59;24.50;62.30
15546;DHT22;7874;48.870;11.074;2023-06-14T11:36:27;24.90;62.60
15546;DHT22;7874;48.870;11.074;2023-06-14T11:38:58;25.20;60.70
15546;DHT22;7874;48.870;11.074;2023-06-14T11:41:32;26.30;60.70
15546;DHT22;7874;48.870;11.074;2023-06-14T11:44:00;28.20;58.70
15546;DHT22;7874;48.870;11.074;2023-06-14T11:46:28;29.50;57.20
15546;DHT22;7874;48.870;11.074;2023-06-14T11:48:55;30.50;56.30
15546;DHT22;7874;48.870;11.074;2023-06-14T11:51:22;30.70;54.50
15546;DHT22;7874;48.870;11.074;2023-06-14T11:53:49;30.80;56.30
15546;DHT22;7874;48.870;11.074;2023-06-14T11:56:15;30.60;55.00
15546;DHT22;7874;48.870;11.074;2023-06-14T11:58:44;31.30;53.90
15546;DHT22;7874;48.870;11.074;2023-06-14T12:01:14;31.50;54.20
15546;DHT22;7874;48.870;11.074;2023-06-14T12:03:47;31.40;55.00
15546;DHT22;7874;48.870;11.074;2023-06-14T12:06:15;31.50;54.50
15546;DHT22;7874;48.870;11.074;2023-06-14T12:08:44;31.40;55.20
15546;DHT22;7874;48.870;11.074;2023-06-14T12:11:12;31.10;53.80
15546;DHT22;7874;48.870;11.074;2023-06-14T12:13:39;30.90;55.30
15546;DHT22;7874;48.870;11.074;2023-06-14T12:16:08;32.10;55.50
15546;DHT22;7874;48.870;11.074;2023-06-14T12:18:36;31.40;54.70
15546;DHT22;7874;48.870;11.074;2023-06-14T12:21:04;30.60;54.70
15546;DHT22;7874;48.870;11.074;2023-06-14T12:23:45;30.60;54.90
15546;DHT22;7874;48.870;11.074;2023-06-14T12:26:15;31.40;54.70
15546;DHT22;7874;48.870;11.074;2023-06-14T12:28:43;31.30;54.30
15546;DHT22;7874;48.870;11.074;2023-06-14T12:31:14;30.30;54.60
15546;DHT22;7874;48.870;11.074;2023-06-14T12:33:41;28.40;55.90
15546;DHT22;7874;48.870;11.074;2023-06-14T12:39:36;27.40;57.70
15546;DHT22;7874;48.870;11.074;2023-06-14T12:42:37;27.30;58.50
15546;DHT22;7874;48.870;11.074;2023-06-14T12:45:05;27.50;57.50
15546;DHT22;7874;48.870;11.074;2023-06-14T12:47:33;27.60;57.20
15546;DHT22;7874;48.870;11.074;2023-06-14T12:50:01;27.60;57.80
15546;DHT22;7874;48.870;11.074;2023-06-14T12:52:28;27.30;57.60
15546;DHT22;7874;48.870;11.074;2023-06-14T12:54:55;26.70;58.10
15546;DHT22;7874;48.870;11.074;2023-06-14T12:57:41;26.50;58.70
15546;DHT22;7874;48.870;11.074;2023-06-14T13:00:17;26.10;59.00
15546;DHT22;7874;48.870;11.074;2023-06-14T13:06:14;28.50;57.10
15546;DHT22;7874;48.870;11.074;2023-06-14T13:08:41;30.60;57.60
15546;DHT22;7874;48.870;11.074;2023-06-14T13:11:08;31.00;55.10
15546;DHT22;7874;48.870;11.074;2023-06-14T13:16:58;31.00;54.60
15546;DHT22;7874;48.870;11.074;2023-06-14T13:19:25;31.00;53.40
15546;DHT22;7874;48.870;11.074;2023-06-14T13:21:53;31.00;54.80
15546;DHT22;7874;48.870;11.074;2023-06-14T13:24:20;30.10;54.30
15546;DHT22;7874;48.870;11.074;2023-06-14T13:26:47;31.00;53.90
15546;DHT22;7874;48.870;11.074;2023-06-14T13:29:14;31.50;54.10
15546;DHT22;7874;48.870;11.074;2023-06-14T13:31:41;31.50;53.40
15546;DHT22;7874;48.870;11.074;2023-06-14T13:34:08;31.60;53.70
15546;DHT22;7874;48.870;11.074;2023-06-14T13:36:35;30.30;54.80
15546;DHT22;7874;48.870;11.074;2023-06-14T13:39:03;29.70;55.80
15546;DHT22;7874;48.870;11.074;2023-06-14T13:41:30;29.20;55.50
15546;DHT22;7874;48.870;11.074;2023-06-14T13:44:00;29.10;56.00
15546;DHT22;7874;48.870;11.074;2023-06-14T13:46:29;29.50;55.70
15546;DHT22;7874;48.870;11.074;2023-06-14T13:48:56;29.10;55.80
15546;DHT22;7874;48.870;11.074;2023-06-14T13:51:24;28.90;55.90
15546;DHT22;7874;48.870;11.074;2023-06-14T13:53:52;29.30;54.90
15546;DHT22;7874;48.870;11.074;2023-06-14T13:56:22;28.60;55.50
15546;DHT22;7874;48.870;11.074;2023-06-14T13:58:50;27.70;56.20
15546;DHT22;7874;48.870;11.074;2023-06-14T14:01:17;27.30;57.00
15546;DHT22;7874;48.870;11.074;2023-06-14T14:03:45;27.20;56.90
15546;DHT22;7874;48.870;11.074;2023-06-14T14:06:13;27.10;57.40
15546;DHT22;7874;48.870;11.074;2023-06-14T14:08:39;26.70;58.00
15546;DHT22;7874;48.870;11.074;2023-06-14T14:12:47;26.30;59.00
15546;DHT22;7874;48.870;11.074;2023-06-14T14:15:14;25.70;59.90
15546;DHT22;7874;48.870;11.074;2023-06-14T14:17:41;25.10;61.60
15546;DHT22;7874;48.870;11.074;2023-06-14T14:20:09;25.40;61.10
15546;DHT22;7874;48.870;11.074;2023-06-14T14:22:38;25.50;59.40
15546;DHT22;7874;48.870;11.074;2023-06-14T14:25:05;25.40;60.30
15546;DHT22;7874;48.870;11.074;2023-06-14T14:27:31;25.50;59.90
15546;DHT22;7874;48.870;11.074;2023-06-14T14:30:00;25.50;60.40
15546;DHT22;7874;48.870;11.074;2023-06-14T14:32:26;25.00;61.40
15546;DHT22;7874;48.870;11.074;2023-06-14T14:34:53;24.80;62.00
15546;DHT22;7874;48.870;11.074;2023-06-14T14:37:20;24.70;61.90
15546;DHT22;7874;48.870;11.074;2023-06-14T14:39:47;24.70;62.50
15546;DHT22;7874;48.870;11.074;2023-06-14T14:42:14;24.60;62.40
15546;DHT22;7874;48.870;11.074;2023-06-14T14:44:44;24.80;62.30
15546;DHT22;7874;48.870;11.074;2023-06-14T14:47:12;24.40;63.20
15546;DHT22;7874;48.870;11.074;2023-06-14T14:49:39;24.50;62.40
15546;DHT22;7874;48.870;11.074;2023-06-14T14:52:06;24.40;62.60
15546;DHT22;7874;48.870;11.074;2023-06-14T14:54:33;24.40;62.80
15546;DHT22;7874;48.870;11.074;2023-06-14T14:57:00;24.40;62.90
15546;DHT22;7874;48.870;11.074;2023-06-14T14:59:27;24.40;63.40
15546;DHT22;7874;48.870;11.074;2023-06-14T15:01:54;24.40;64.40
15546;DHT22;7874;48.870;11.074;2023-06-14T15:04:22;24.20;63.50
15546;DHT22;7874;48.870;11.074;2023-06-14T15:06:49;23.80;64.60
15546;DHT22;7874;48.870;11.074;2023-06-14T15:09:16;23.40;63.10
15546;DHT22;7874;48.870;11.074;2023-06-14T15:11:43;23.50;64.40
15546;DHT22;7874;48.870;11.074;2023-06-14T15:14:10;23.70;63.90
15546;DHT22;7874;48.870;11.074;2023-06-14T15:16:37;23.80;62.80
15546;DHT22;7874;48.870;11.074;2023-06-14T15:19:04;23.80;62.60
15546;DHT22;7874;48.870;11.074;2023-06-14T15:21:32;23.80;62.70
15546;DHT22;7874;48.870;11.074;2023-06-14T15:23:59;23.80;63.00
15546;DHT22;7874;48.870;11.074;2023-06-14T15:26:26;23.60;63.30
15546;DHT22;7874;48.870;11.074;2023-06-14T15:28:54;23.70;63.90
15546;DHT22;7874;48.870;11.074;2023-06-14T15:31:21;23.70;63.30
15546;DHT22;7874;48.870;11.074;2023-06-14T15:33:49;23.80;62.30
15546;DHT22;7874;48.870;11.074;2023-06-14T15:36:16;23.70;62.00
15546;DHT22;7874;48.870;11.074;2023-06-14T15:38:44;23.70;62.90
15546;DHT22;7874;48.870;11.074;2023-06-14T15:41:10;23.60;63.40
15546;DHT22;7874;48.870;11.074;2023-06-14T15:43:38;23.60;63.10
15546;DHT22;7874;48.870;11.074;2023-06-14T15:46:04;23.50;62.40
15546;DHT22;7874;48.870;11.074;2023-06-14T15:48:31;23.40;63.30
15546;DHT22;7874;48.870;11.074;2023-06-14T15:50:58;23.60;63.80
15546;DHT22;7874;48.870;11.074;2023-06-14T15:53:25;23.70;62.50
15546;DHT22;7874;48.870;11.074;2023-06-14T15:55:53;23.70;62.10
15546;DHT22;7874;48.870;11.074;2023-06-14T15:58:20;23.70;62.20
15546;DHT22;7874;48.870;11.074;2023-06-14T16:00:47;23.70;60.50
15546;DHT22;7874;48.870;11.074;2023-06-14T16:03:14;23.70;61.60
15546;DHT22;7874;48.870;11.074;2023-06-14T16:05:41;23.70;62.90
15546;DHT22;7874;48.870;11.074;2023-06-14T16:08:08;23.80;62.90
15546;DHT22;7874;48.870;11.074;2023-06-14T16:10:34;23.80;62.10
15546;DHT22;7874;48.870;11.074;2023-06-14T16:13:03;23.80;61.80
15546;DHT22;7874;48.870;11.074;2023-06-14T16:15:30;23.90;60.90
15546;DHT22;7874;48.870;11.074;2023-06-14T16:17:57;24.00;60.70
15546;DHT22;7874;48.870;11.074;2023-06-14T16:20:24;23.80;61.80
15546;DHT22;7874;48.870;11.074;2023-06-14T16:22:51;23.80;62.20
15546;DHT22;7874;48.870;11.074;2023-06-14T16:25:18;23.90;62.80
15546;DHT22;7874;48.870;11.074;2023-06-14T16:27:45;23.90;61.70
15546;DHT22;7874;48.870;11.074;2023-06-14T16:30:13;23.90;61.80
15546;DHT22;7874;48.870;11.074;2023-06-14T16:32:40;23.70;63.80
15546;DHT22;7874;48.870;11.074;2023-06-14T16:35:07;23.50;63.10
15546;DHT22;7874;48.870;11.074;2023-06-14T16:37:34;23.60;63.40
15546;DHT22;7874;48.870;11.074;2023-06-14T16:40:01;23.60;63.80
15546;DHT22;7874;48.870;11.074;2023-06-14T16:42:28;23.70;64.50
15546;DHT22;7874;48.870;11.074;2023-06-14T16:44:55;23.70;63.90
15546;DHT22;7874;48.870;11.074;2023-06-14T16:47:25;23.70;63.30
15546;DHT22;7874;48.870;11.074;2023-06-14T16:49:51;23.70;63.40
15546;DHT22;7874;48.870;11.074;2023-06-14T16:52:18;23.60;63.30
15546;DHT22;7874;48.870;11.074;2023-06-14T16:54:45;23.60;63.10
15546;DHT22;7874;48.870;11.074;2023-06-14T16:57:12;23.70;62.80
15546;DHT22;7874;48.870;11.074;2023-06-14T17:01:33;23.60;62.40
15546;DHT22;7874;48.870;11.074;2023-06-14T17:04:00;23.60;63.10
15546;DHT22;7874;48.870;11.074;2023-06-14T17:06:27;23.60;62.60
15546;DHT22;7874;48.870;11.074;2023-06-14T17:08:54;23.60;62.30
15546;DHT22;7874;48.870;11.074;2023-06-14T17:11:20;23.50;62.70
15546;DHT22;7874;48.870;11.074;2023-06-14T17:13:48;23.40;62.80
15546;DHT22;7874;48.870;11.074;2023-06-14T17:16:15;23.30;63.10
15546;DHT22;7874;48.870;11.074;2023-06-14T17:18:44;23.40;62.70
15546;DHT22;7874;48.870;11.074;2023-06-14T17:21:12;23.30;62.70
15546;DHT22;7874;48.870;11.074;2023-06-14T17:23:38;23.30;63.10
15546;DHT22;7874;48.870;11.074;2023-06-14T17:26:05;23.20;63.40
15546;DHT22;7874;48.870;11.074;2023-06-14T17:28:33;23.30;64.40
15546;DHT22;7874;48.870;11.074;2023-06-14T17:31:00;23.30;64.30
15546;DHT22;7874;48.870;11.074;2023-06-14T17:33:27;23.20;64.30
15546;DHT22;7874;48.870;11.074;2023-06-14T17:35:55;23.10;64.90
15546;DHT22;7874;48.870;11.074;2023-06-14T17:38:22;23.10;64.60
15546;DHT22;7874;48.870;11.074;2023-06-14T17:40:50;23.10;64.40
15546;DHT22;7874;48.870;11.074;2023-06-14T17:43:17;23.00;65.10
15546;DHT22;7874;48.870;11.074;2023-06-14T17:45:44;23.00;65.40
15546;DHT22;7874;48.870;11.074;2023-06-14T17:48:11;22.90;64.30
15546;DHT22;7874;48.870;11.074;2023-06-14T17:50:38;22.70;64.60
15546;DHT22;7874;48.870;11.074;2023-06-14T17:53:06;22.60;64.10
15546;DHT22;7874;48.870;11.074;2023-06-14T17:55:33;22.60;64.50
15546;DHT22;7874;48.870;11.074;2023-06-14T17:58:02;22.50;65.40
15546;DHT22;7874;48.870;11.074;2023-06-14T18:00:29;22.50;65.50
15546;DHT22;7874;48.870;11.074;2023-06-14T18:02:56;22.40;65.90
15546;DHT22;7874;48.870;11.074;2023-06-14T18:05:23;22.50;66.70
15546;DHT22;7874;48.870;11.074;2023-06-14T18:07:51;22.50;66.30
15546;DHT22;7874;48.870;11.074;2023-06-14T18:10:20;22.40;66.00
15546;DHT22;7874;48.870;11.074;2023-06-14T18:12:46;22.50;66.30
15546;DHT22;7874;48.870;11.074;2023-06-14T18:15:13;22.50;66.70
15546;DHT22;7874;48.870;11.074;2023-06-14T18:17:40;22.50;66.70
15546;DHT22;7874;48.870;11.074;2023-06-14T18:20:08;22.40;66.30
15546;DHT22;7874;48.870;11.074;2023-06-14T18:22:35;22.30;67.30
15546;DHT22;7874;48.870;11.074;2023-06-14T18:25:02;22.40;67.10
15546;DHT22;7874;48.870;11.074;2023-06-14T18:27:30;22.20;67.60
15546;DHT22;7874;48.870;11.074;2023-06-14T18:29:57;22.20;68.30
15546;DHT22;7874;48.870;11.074;2023-06-14T18:32:24;22.20;67.90
15546;DHT22;7874;48.870;11.074;2023-06-14T18:34:52;22.20;67.70
15546;DHT22;7874;48.870;11.074;2023-06-14T18:37:19;22.10;67.70
15546;DHT22;7874;48.870;11.074;2023-06-14T18:39:46;22.00;68.30
15546;DHT22;7874;48.870;11.074;2023-06-14T18:42:13;22.00;68.40
15546;DHT22;7874;48.870;11.074;2023-06-14T18:44:41;22.00;69.10
15546;DHT22;7874;48.870;11.074;2023-06-14T18:47:08;21.90;69.20
15546;DHT22;7874;48.870;11.074;2023-06-14T18:49:36;21.90;69.30
15546;DHT22;7874;48.870;11.074;2023-06-14T18:52:03;21.80;69.50
15546;DHT22;7874;48.870;11.074;2023-06-14T18:54:30;21.70;71.30
15546;DHT22;7874;48.870;11.074;2023-06-14T18:56:57;21.60;71.60
15546;DHT22;7874;48.870;11.074;2023-06-14T18:59:24;21.50;72.80
15546;DHT22;7874;48.870;11.074;2023-06-14T19:01:52;21.40;73.30
15546;DHT22;7874;48.870;11.074;2023-06-14T19:04:20;21.20;73.70
15546;DHT22;7874;48.870;11.074;2023-06-14T19:06:47;21.30;73.40
15546;DHT22;7874;48.870;11.074;2023-06-14T19:09:15;21.20;73.90
15546;DHT22;7874;48.870;11.074;2023-06-14T19:11:43;21.00;74.20
15546;DHT22;7874;48.870;11.074;2023-06-14T19:14:12;21.00;74.10
15546;DHT22;7874;48.870;11.074;2023-06-14T19:16:39;21.00;75.50
15546;DHT22;7874;48.870;11.074;2023-06-14T19:19:08;20.90;73.90
15546;DHT22;7874;48.870;11.074;2023-06-14T19:21:35;20.90;76.90
